Neptune Avra — 9HKH6 — position and weather

sailwx.info

Track history (hours):
 
Tides and Currents Weather Stations Pressure Air Temp Water Temp Dewpoint Dewpoint Depression Visibility Wind Speed Wind Dir Waves Ship Positions

Neptune Avra

Last reported at 2016-May-24 16:21 UTC. Time now 2016-May-24 19:35 UTC.
Position N 41°19' E 002°11'.

Length 155 m; draft 6.2 m.

Type: Cargo ship. MMSI: 248598000.

Date/timePositionNaut miles runAvg speedWind from/ knotsBaromVisibWave heightAir tempDewpointWater temp
2016-May-24 16:21N 41°19' E 002°11'0 0.0
2016-May-24 06:33N 41°19' E 002°11'0 0.0
2016-May-24 01:32N 41°19' E 002°11'0 0.0
2016-May-24 00:19N 41°19' E 002°11'79 2.4
2016-May-22 15:30N 41°51' E 003°47'1 0.5
2016-May-22 14:12N 41°50' E 003°47'11 0.8
2016-May-22 01:21N 41°41' E 003°39'1 0.7
2016-May-22 00:33N 41°41' E 003°39'1 0.6
2016-May-21 23:32N 41°41' E 003°38'0 0.5
2016-May-21 22:33N 41°40' E 003°37'1 0.6
2016-May-21 21:11N 41°40' E 003°36'1 0.7
2016-May-21 20:22N 41°40' E 003°36'1 0.8
2016-May-21 19:33N 41°40' E 003°35'1 0.9
2016-May-21 18:33N 41°40' E 003°34'1 0.9
2016-May-21 17:33N 41°40' E 003°33'1 1.1
2016-May-21 16:34N 41°39' E 003°31'1 1.3
2016-May-21 15:33N 41°39' E 003°30'1 1.3
2016-May-21 14:33N 41°39' E 003°28'1 1.3
2016-May-21 13:28N 41°38' E 003°26'1 1.2
2016-May-21 12:33N 41°38' E 003°25'1 1.2
2016-May-21 11:21N 41°37' E 003°23'1 1.1
2016-May-21 10:33N 41°37' E 003°22'2 1.1
2016-May-21 09:06N 41°36' E 003°20'1 1.0
2016-May-21 08:33N 41°35' E 003°20'1 0.8
2016-May-21 07:33N 41°35' E 003°19'1 0.6
2016-May-21 06:33N 41°35' E 003°18'1 0.7
2016-May-21 05:33N 41°35' E 003°17'1 0.8
2016-May-21 04:33N 41°35' E 003°16'1 1.0
2016-May-21 03:33N 41°35' E 003°15'1 1.0
2016-May-21 02:33N 41°36' E 003°14'1 1.2
2016-May-21 01:33N 41°36' E 003°12'1414.1
2016-May-21 00:33N 41°31' E 002°55'1615.8
2016-May-20 23:33N 41°24' E 002°36'1916.1
2016-May-20 22:22N 41°15' E 002°14'1316.0
2016-May-20 21:33N 41°09' E 001°58'1616.0
2016-May-20 20:33N 41°02' E 001°39'1915.9
2016-May-20 19:20N 40°53' E 001°17'1216.0
2016-May-20 18:33N 40°43' E 001°07'1716.2
2016-May-20 17:32N 40°30' E 000°52'1615.6
2016-May-20 16:30N 40°17' E 000°40'1515.7
2016-May-20 15:31N 40°05' E 000°27'42 3.7
2016-May-20 04:09N 39°34' W 000°09'1 1.0
2016-May-20 03:33N 39°33' W 000°09'2 0.9
2016-May-20 01:31N 39°35' W 000°07'36 6.0
2016-May-19 19:26N 39°58' E 000°30'1315.1
2016-May-19 18:33N 40°06' E 000°43'1515.0
2016-May-19 17:33N 40°16' E 000°58'1515.3
2016-May-19 16:33N 40°26' E 001°13'1615.5
2016-May-19 15:32N 40°38' E 001°27'5310.2
2016-May-19 10:17N 41°19' E 002°11'0 0.0
2016-May-19 02:18N 41°19' E 002°11'0 0.0
2016-May-19 01:32N 41°19' E 002°11'0 0.0
2016-May-18 18:33N 41°19' E 002°11'2 0.4
2016-May-18 14:29N 41°21' E 002°10'1 0.3
2016-May-18 11:10N 41°20' E 002°09'0 0.0
2016-May-18 02:04N 41°20' E 002°09'0 0.0
2016-May-17 20:08N 41°20' E 002°09'3 4.0
2016-May-17 19:23N 41°18' E 002°12'1 0.5
2016-May-17 16:28N 41°19' E 002°11'0 0.0
2016-May-17 05:29N 41°19' E 002°11'0 0.0
2016-May-17 03:31N 41°19' E 002°11'0 0.0
2016-May-17 00:27N 41°19' E 002°11'0 0.0
2016-May-16 23:23N 41°19' E 002°11'0 0.0
2016-May-16 17:32N 41°19' E 002°11'0 0.0
2016-May-16 16:32N 41°19' E 002°11'0 0.0
2016-May-16 02:15N 41°19' E 002°11'0 0.1
2016-May-16 01:32N 41°19' E 002°11'0 0.0
2016-May-15 23:16N 41°19' E 002°11'0 0.0
2016-May-15 22:24N 41°19' E 002°11'0 0.0
2016-May-15 21:32N 41°19' E 002°11'0 0.0
2016-May-15 19:29N 41°19' E 002°11'0 0.0
2016-May-15 13:32N 41°19' E 002°11'0 0.0
2016-May-15 01:21N 41°19' E 002°11'0 0.0
2016-May-14 17:31N 41°19' E 002°11'0 0.1
2016-May-14 16:22N 41°19' E 002°11'  
Track history (hours):
 
Tides and Currents Weather Stations Pressure Air Temp Water Temp Dewpoint Dewpoint Depression Visibility Wind Speed Wind Dir Waves Ship Positions

Neptune Avra

Last reported at 2016-May-24 16:21 UTC. Time now 2016-May-24 19:35 UTC.
Position N 41°19' E 002°11'.

Length 155 m; draft 6.2 m.

Type: Cargo ship. MMSI: 248598000.

Date/timePositionNaut miles runAvg speedWind from/ knotsBaromVisibWave heightAir tempDewpointWater temp
2016-May-24 16:21N 41°19' E 002°11'0 0.0
2016-May-24 06:33N 41°19' E 002°11'0 0.0
2016-May-24 01:32N 41°19' E 002°11'0 0.0
2016-May-24 00:19N 41°19' E 002°11'79 2.4
2016-May-22 15:30N 41°51' E 003°47'1 0.5
2016-May-22 14:12N 41°50' E 003°47'11 0.8
2016-May-22 01:21N 41°41' E 003°39'1 0.7
2016-May-22 00:33N 41°41' E 003°39'1 0.6
2016-May-21 23:32N 41°41' E 003°38'0 0.5
2016-May-21 22:33N 41°40' E 003°37'1 0.6
2016-May-21 21:11N 41°40' E 003°36'1 0.7
2016-May-21 20:22N 41°40' E 003°36'1 0.8
2016-May-21 19:33N 41°40' E 003°35'1 0.9
2016-May-21 18:33N 41°40' E 003°34'1 0.9
2016-May-21 17:33N 41°40' E 003°33'1 1.1
2016-May-21 16:34N 41°39' E 003°31'1 1.3
2016-May-21 15:33N 41°39' E 003°30'1 1.3
2016-May-21 14:33N 41°39' E 003°28'1 1.3
2016-May-21 13:28N 41°38' E 003°26'1 1.2
2016-May-21 12:33N 41°38' E 003°25'1 1.2
2016-May-21 11:21N 41°37' E 003°23'1 1.1
2016-May-21 10:33N 41°37' E 003°22'2 1.1
2016-May-21 09:06N 41°36' E 003°20'1 1.0
2016-May-21 08:33N 41°35' E 003°20'1 0.8
2016-May-21 07:33N 41°35' E 003°19'1 0.6
2016-May-21 06:33N 41°35' E 003°18'1 0.7
2016-May-21 05:33N 41°35' E 003°17'1 0.8
2016-May-21 04:33N 41°35' E 003°16'1 1.0
2016-May-21 03:33N 41°35' E 003°15'1 1.0
2016-May-21 02:33N 41°36' E 003°14'1 1.2
2016-May-21 01:33N 41°36' E 003°12'1414.1
2016-May-21 00:33N 41°31' E 002°55'1615.8
2016-May-20 23:33N 41°24' E 002°36'1916.1
2016-May-20 22:22N 41°15' E 002°14'1316.0
2016-May-20 21:33N 41°09' E 001°58'1616.0
2016-May-20 20:33N 41°02' E 001°39'1915.9
2016-May-20 19:20N 40°53' E 001°17'1216.0
2016-May-20 18:33N 40°43' E 001°07'1716.2
2016-May-20 17:32N 40°30' E 000°52'1615.6
2016-May-20 16:30N 40°17' E 000°40'1515.7
2016-May-20 15:31N 40°05' E 000°27'42 3.7
2016-May-20 04:09N 39°34' W 000°09'1 1.0
2016-May-20 03:33N 39°33' W 000°09'2 0.9
2016-May-20 01:31N 39°35' W 000°07'36 6.0
2016-May-19 19:26N 39°58' E 000°30'1315.1
2016-May-19 18:33N 40°06' E 000°43'1515.0
2016-May-19 17:33N 40°16' E 000°58'1515.3
2016-May-19 16:33N 40°26' E 001°13'1615.5
2016-May-19 15:32N 40°38' E 001°27'5310.2
2016-May-19 10:17N 41°19' E 002°11'0 0.0
2016-May-19 02:18N 41°19' E 002°11'0 0.0
2016-May-19 01:32N 41°19' E 002°11'0 0.0
2016-May-18 18:33N 41°19' E 002°11'2 0.4
2016-May-18 14:29N 41°21' E 002°10'1 0.3
2016-May-18 11:10N 41°20' E 002°09'0 0.0
2016-May-18 02:04N 41°20' E 002°09'0 0.0
2016-May-17 20:08N 41°20' E 002°09'3 4.0
2016-May-17 19:23N 41°18' E 002°12'1 0.5
2016-May-17 16:28N 41°19' E 002°11'0 0.0
2016-May-17 05:29N 41°19' E 002°11'0 0.0
2016-May-17 03:31N 41°19' E 002°11'0 0.0
2016-May-17 00:27N 41°19' E 002°11'0 0.0
2016-May-16 23:23N 41°19' E 002°11'0 0.0
2016-May-16 17:32N 41°19' E 002°11'0 0.0
2016-May-16 16:32N 41°19' E 002°11'0 0.0
2016-May-16 02:15N 41°19' E 002°11'0 0.1
2016-May-16 01:32N 41°19' E 002°11'0 0.0
2016-May-15 23:16N 41°19' E 002°11'0 0.0
2016-May-15 22:24N 41°19' E 002°11'0 0.0
2016-May-15 21:32N 41°19' E 002°11'0 0.0
2016-May-15 19:29N 41°19' E 002°11'0 0.0
2016-May-15 13:32N 41°19' E 002°11'0 0.0
2016-May-15 01:21N 41°19' E 002°11'0 0.0
2016-May-14 17:31N 41°19' E 002°11'0 0.1
2016-May-14 16:22N 41°19' E 002°11'  

Dump ship's entire track history